sensor_id;sensor_type;location;lat;lon;timestamp;temperature;humidity
32895;DHT22;19251;49.484;8.260;2022-08-11T00:02:03;20.20;11.60
32895;DHT22;19251;49.484;8.260;2022-08-11T00:07:05;20.20;11.90
32895;DHT22;19251;49.484;8.260;2022-08-11T00:12:16;20.20;11.00
32895;DHT22;19251;49.484;8.260;2022-08-11T00:17:19;20.10;12.80
32895;DHT22;19251;49.484;8.260;2022-08-11T00:22:27;20.10;12.10
32895;DHT22;19251;49.484;8.260;2022-08-11T00:27:33;20.00;12.10
32895;DHT22;19251;49.484;8.260;2022-08-11T00:32:41;20.00;12.40
32895;DHT22;19251;49.484;8.260;2022-08-11T00:37:47;19.90;12.50
32895;DHT22;19251;49.484;8.260;2022-08-11T00:43:07;20.10;12.20
32895;DHT22;19251;49.484;8.260;2022-08-11T00:48:38;19.80;12.70
32895;DHT22;19251;49.484;8.260;2022-08-11T00:54:30;19.80;12.70
32895;DHT22;19251;49.484;8.260;2022-08-11T01:32:27;19.20;13.40
32895;DHT22;19251;49.484;8.260;2022-08-11T01:49:42;19.10;13.50
32895;DHT22;19251;49.484;8.260;2022-08-11T01:55:16;19.20;13.40
32895;DHT22;19251;49.484;8.260;2022-08-11T02:00:25;19.10;13.50
32895;DHT22;19251;49.484;8.260;2022-08-11T02:22:02;18.80;13.90
32895;DHT22;19251;49.484;8.260;2022-08-11T02:27:31;18.90;14.10
32895;DHT22;19251;49.484;8.260;2022-08-11T02:38:18;18.80;14.20
32895;DHT22;19251;49.484;8.260;2022-08-11T02:43:26;18.90;14.20
32895;DHT22;19251;49.484;8.260;2022-08-11T02:48:49;18.80;15.10
32895;DHT22;19251;49.484;8.260;2022-08-11T03:16:28;18.60;15.40
32895;DHT22;19251;49.484;8.260;2022-08-11T03:32:29;18.40;14.90
32895;DHT22;19251;49.484;8.260;2022-08-11T03:37:50;18.10;14.70
32895;DHT22;19251;49.484;8.260;2022-08-11T03:43:01;18.30;15.60
32895;DHT22;19251;49.484;8.260;2022-08-11T03:53:15;18.40;15.40
32895;DHT22;19251;49.484;8.260;2022-08-11T04:30:57;18.00;16.00
32895;DHT22;19251;49.484;8.260;2022-08-11T04:42:12;18.00;16.30
32895;DHT22;19251;49.484;8.260;2022-08-11T04:48:18;18.00;17.30
32895;DHT22;19251;49.484;8.260;2022-08-11T05:00:07;18.10;18.40
32895;DHT22;19251;49.484;8.260;2022-08-11T05:16:49;18.10;18.40
32895;DHT22;19251;49.484;8.260;2022-08-11T05:22:11;18.10;17.30
32895;DHT22;19251;49.484;8.260;2022-08-11T05:28:02;18.20;18.20
32895;DHT22;19251;49.484;8.260;2022-08-11T05:33:24;18.30;17.40
32895;DHT22;19251;49.484;8.260;2022-08-11T05:38:58;18.40;18.20
32895;DHT22;19251;49.484;8.260;2022-08-11T05:44:36;18.80;17.80
32895;DHT22;19251;49.484;8.260;2022-08-11T05:49:58;18.90;18.50
32895;DHT22;19251;49.484;8.260;2022-08-11T05:55:38;19.10;18.00
32895;DHT22;19251;49.484;8.260;2022-08-11T06:01:05;19.30;18.80
32895;DHT22;19251;49.484;8.260;2022-08-11T06:06:15;19.30;18.80
32895;DHT22;19251;49.484;8.260;2022-08-11T06:11:17;19.60;18.70
32895;DHT22;19251;49.484;8.260;2022-08-11T06:16:41;20.30;17.90
32895;DHT22;19251;49.484;8.260;2022-08-11T06:21:45;20.30;18.50
32895;DHT22;19251;49.484;8.260;2022-08-11T06:26:50;21.30;17.70
32895;DHT22;19251;49.484;8.260;2022-08-11T06:32:14;21.40;18.20
32895;DHT22;19251;49.484;8.260;2022-08-11T06:42:48;22.70;17.00
32895;DHT22;19251;49.484;8.260;2022-08-11T06:47:54;23.20;15.10
32895;DHT22;19251;49.484;8.260;2022-08-11T06:53:06;23.80;14.30
32895;DHT22;19251;49.484;8.260;2022-08-11T06:58:17;23.60;13.60
32895;DHT22;19251;49.484;8.260;2022-08-11T07:03:50;24.10;13.40
32895;DHT22;19251;49.484;8.260;2022-08-11T07:14:52;24.60;12.30
32895;DHT22;19251;49.484;8.260;2022-08-11T07:20:15;24.70;12.00
32895;DHT22;19251;49.484;8.260;2022-08-11T07:25:40;24.90;11.70
32895;DHT22;19251;49.484;8.260;2022-08-11T07:31:06;25.10;11.50
32895;DHT22;19251;49.484;8.260;2022-08-11T07:36:16;25.40;11.00
32895;DHT22;19251;49.484;8.260;2022-08-11T07:41:21;25.40;10.50
32895;DHT22;19251;49.484;8.260;2022-08-11T07:46:24;25.80;10.40
32895;DHT22;19251;49.484;8.260;2022-08-11T07:51:45;26.00;9.80
32895;DHT22;19251;49.484;8.260;2022-08-11T07:57:08;26.20;9.00
32895;DHT22;19251;49.484;8.260;2022-08-11T08:02:49;26.40;8.90
32895;DHT22;19251;49.484;8.260;2022-08-11T08:08:12;26.60;8.80
32895;DHT22;19251;49.484;8.260;2022-08-11T08:13:34;26.80;8.60
32895;DHT22;19251;49.484;8.260;2022-08-11T08:18:55;27.10;8.30
32895;DHT22;19251;49.484;8.260;2022-08-11T08:23:57;27.20;7.70
32895;DHT22;19251;49.484;8.260;2022-08-11T08:29:02;27.50;7.60
32895;DHT22;19251;49.484;8.260;2022-08-11T08:34:23;27.80;7.10
32895;DHT22;19251;49.484;8.260;2022-08-11T08:39:27;28.00;7.00
32895;DHT22;19251;49.484;8.260;2022-08-11T08:44:33;28.50;6.50
32895;DHT22;19251;49.484;8.260;2022-08-11T08:49:48;28.10;5.90
32895;DHT22;19251;49.484;8.260;2022-08-11T08:54:54;28.40;5.10
32895;DHT22;19251;49.484;8.260;2022-08-11T08:59:58;28.80;5.50
32895;DHT22;19251;49.484;8.260;2022-08-11T09:05:03;28.90;4.40
32895;DHT22;19251;49.484;8.260;2022-08-11T09:10:07;29.20;4.20
32895;DHT22;19251;49.484;8.260;2022-08-11T09:15:11;29.40;3.40
32895;DHT22;19251;49.484;8.260;2022-08-11T09:20:22;29.60;3.10
32895;DHT22;19251;49.484;8.260;2022-08-11T09:25:29;29.80;3.00
32895;DHT22;19251;49.484;8.260;2022-08-11T09:30:51;30.00;2.80
32895;DHT22;19251;49.484;8.260;2022-08-11T09:35:57;30.20;2.30
32895;DHT22;19251;49.484;8.260;2022-08-11T09:41:21;30.30;1.90
32895;DHT22;19251;49.484;8.260;2022-08-11T09:46:28;30.30;1.00
32895;DHT22;19251;49.484;8.260;2022-08-11T09:51:32;30.30;1.10
32895;DHT22;19251;49.484;8.260;2022-08-11T09:56:35;29.90;1.00
32895;DHT22;19251;49.484;8.260;2022-08-11T10:02:00;30.40;1.00
32895;DHT22;19251;49.484;8.260;2022-08-11T10:07:05;30.70;1.00
32895;DHT22;19251;49.484;8.260;2022-08-11T10:12:17;31.00;1.00
32895;DHT22;19251;49.484;8.260;2022-08-11T10:17:21;31.30;1.00
32895;DHT22;19251;49.484;8.260;2022-08-11T10:22:25;31.50;1.00
32895;DHT22;19251;49.484;8.260;2022-08-11T10:27:47;31.70;1.00
32895;DHT22;19251;49.484;8.260;2022-08-11T10:33:17;31.90;1.00
32895;DHT22;19251;49.484;8.260;2022-08-11T10:38:57;32.20;1.00
32895;DHT22;19251;49.484;8.260;2022-08-11T10:44:02;32.40;1.00
32895;DHT22;19251;49.484;8.260;2022-08-11T10:49:07;32.50;1.00
32895;DHT22;19251;49.484;8.260;2022-08-11T10:54:10;32.60;1.00
32895;DHT22;19251;49.484;8.260;2022-08-11T10:59:33;32.70;1.00
32895;DHT22;19251;49.484;8.260;2022-08-11T11:05:08;32.70;1.00
32895;DHT22;19251;49.484;8.260;2022-08-11T11:10:10;32.80;1.00
32895;DHT22;19251;49.484;8.260;2022-08-11T11:20:44;33.00;1.00
32895;DHT22;19251;49.484;8.260;2022-08-11T11:36:54;33.60;1.00
32895;DHT22;19251;49.484;8.260;2022-08-11T11:42:03;33.80;1.00
32895;DHT22;19251;49.484;8.260;2022-08-11T11:47:06;34.10;1.00
32895;DHT22;19251;49.484;8.260;2022-08-11T11:52:18;34.30;1.00
32895;DHT22;19251;49.484;8.260;2022-08-11T11:57:21;34.60;1.00
32895;DHT22;19251;49.484;8.260;2022-08-11T12:03:07;34.80;1.00
32895;DHT22;19251;49.484;8.260;2022-08-11T12:08:12;35.00;1.00
32895;DHT22;19251;49.484;8.260;2022-08-11T12:13:17;35.10;1.00
32895;DHT22;19251;49.484;8.260;2022-08-11T12:18:40;35.20;1.00
32895;DHT22;19251;49.484;8.260;2022-08-11T12:23:45;35.40;1.00
32895;DHT22;19251;49.484;8.260;2022-08-11T12:29:09;35.60;1.00
32895;DHT22;19251;49.484;8.260;2022-08-11T12:34:14;35.90;1.00
32895;DHT22;19251;49.484;8.260;2022-08-11T12:39:21;36.10;1.00
32895;DHT22;19251;49.484;8.260;2022-08-11T12:45:10;36.20;1.00
32895;DHT22;19251;49.484;8.260;2022-08-11T12:50:28;36.30;1.00
32895;DHT22;19251;49.484;8.260;2022-08-11T12:55:50;36.40;1.00
32895;DHT22;19251;49.484;8.260;2022-08-11T13:01:12;36.50;1.00
32895;DHT22;19251;49.484;8.260;2022-08-11T13:06:33;36.70;1.00
32895;DHT22;19251;49.484;8.260;2022-08-11T13:11:35;36.90;1.00
32895;DHT22;19251;49.484;8.260;2022-08-11T13:16:59;37.20;1.00
32895;DHT22;19251;49.484;8.260;2022-08-11T13:22:20;37.50;1.00
32895;DHT22;19251;49.484;8.260;2022-08-11T13:27:26;37.70;1.00
32895;DHT22;19251;49.484;8.260;2022-08-11T13:32:28;38.10;1.00
32895;DHT22;19251;49.484;8.260;2022-08-11T13:37:30;38.00;1.00
32895;DHT22;19251;49.484;8.260;2022-08-11T13:42:56;38.30;1.00
32895;DHT22;19251;49.484;8.260;2022-08-11T13:48:00;38.60;1.00
32895;DHT22;19251;49.484;8.260;2022-08-11T13:53:04;38.80;1.00
32895;DHT22;19251;49.484;8.260;2022-08-11T13:58:09;39.20;1.00
32895;DHT22;19251;49.484;8.260;2022-08-11T14:03:32;39.50;1.00
32895;DHT22;19251;49.484;8.260;2022-08-11T14:08:56;40.00;1.00
32895;DHT22;19251;49.484;8.260;2022-08-11T14:14:01;40.50;1.00
32895;DHT22;19251;49.484;8.260;2022-08-11T14:19:06;40.80;1.00
32895;DHT22;19251;49.484;8.260;2022-08-11T14:24:12;41.30;1.00
32895;DHT22;19251;49.484;8.260;2022-08-11T14:29:20;41.80;1.00
32895;DHT22;19251;49.484;8.260;2022-08-11T14:34:27;42.30;1.00
32895;DHT22;19251;49.484;8.260;2022-08-11T14:39:34;42.70;1.00
32895;DHT22;19251;49.484;8.260;2022-08-11T14:45:11;43.10;1.00
32895;DHT22;19251;49.484;8.260;2022-08-11T14:50:52;43.60;1.00
32895;DHT22;19251;49.484;8.260;2022-08-11T14:55:55;44.30;1.00
32895;DHT22;19251;49.484;8.260;2022-08-11T15:01:15;44.80;1.00
32895;DHT22;19251;49.484;8.260;2022-08-11T15:06:36;45.40;1.00
32895;DHT22;19251;49.484;8.260;2022-08-11T15:11:39;45.70;1.00
32895;DHT22;19251;49.484;8.260;2022-08-11T15:17:01;45.90;1.00
32895;DHT22;19251;49.484;8.260;2022-08-11T15:22:10;46.20;1.00
32895;DHT22;19251;49.484;8.260;2022-08-11T15:27:32;46.70;1.00
32895;DHT22;19251;49.484;8.260;2022-08-11T15:32:54;47.10;1.00
32895;DHT22;19251;49.484;8.260;2022-08-11T15:38:17;47.50;1.00
32895;DHT22;19251;49.484;8.260;2022-08-11T15:43:39;47.90;1.00
32895;DHT22;19251;49.484;8.260;2022-08-11T15:49:12;48.40;1.00
32895;DHT22;19251;49.484;8.260;2022-08-11T15:54:25;48.90;1.00
32895;DHT22;19251;49.484;8.260;2022-08-11T15:59:31;49.10;1.00
32895;DHT22;19251;49.484;8.260;2022-08-11T16:04:53;49.20;1.00
32895;DHT22;19251;49.484;8.260;2022-08-11T16:10:05;49.10;1.00
32895;DHT22;19251;49.484;8.260;2022-08-11T16:15:16;49.10;1.00
32895;DHT22;19251;49.484;8.260;2022-08-11T16:20:37;48.90;1.00
32895;DHT22;19251;49.484;8.260;2022-08-11T16:25:40;48.50;1.00
32895;DHT22;19251;49.484;8.260;2022-08-11T16:31:03;48.50;1.00
32895;DHT22;19251;49.484;8.260;2022-08-11T16:36:12;48.60;1.00
32895;DHT22;19251;49.484;8.260;2022-08-11T16:41:36;48.80;1.00
32895;DHT22;19251;49.484;8.260;2022-08-11T16:46:58;48.40;1.00
32895;DHT22;19251;49.484;8.260;2022-08-11T16:52:01;47.10;1.00
32895;DHT22;19251;49.484;8.260;2022-08-11T16:57:10;45.60;1.00
32895;DHT22;19251;49.484;8.260;2022-08-11T17:02:35;44.10;1.00
32895;DHT22;19251;49.484;8.260;2022-08-11T17:08:00;42.70;1.00
32895;DHT22;19251;49.484;8.260;2022-08-11T17:13:30;41.40;1.00
32895;DHT22;19251;49.484;8.260;2022-08-11T17:18:39;40.20;1.00
32895;DHT22;19251;49.484;8.260;2022-08-11T17:23:56;39.20;1.00
32895;DHT22;19251;49.484;8.260;2022-08-11T17:29:00;38.40;1.00
32895;DHT22;19251;49.484;8.260;2022-08-11T17:34:05;37.70;1.00
32895;DHT22;19251;49.484;8.260;2022-08-11T17:39:28;37.00;1.00
32895;DHT22;19251;49.484;8.260;2022-08-11T17:44:32;36.30;1.00
32895;DHT22;19251;49.484;8.260;2022-08-11T17:49:54;35.80;1.00
32895;DHT22;19251;49.484;8.260;2022-08-11T17:55:10;35.40;1.00
32895;DHT22;19251;49.484;8.260;2022-08-11T18:00:52;35.00;1.00
32895;DHT22;19251;49.484;8.260;2022-08-11T18:05:56;34.50;1.00
32895;DHT22;19251;49.484;8.260;2022-08-11T18:11:02;34.20;1.00
32895;DHT22;19251;49.484;8.260;2022-08-11T18:16:42;33.80;1.00
32895;DHT22;19251;49.484;8.260;2022-08-11T18:22:11;33.40;1.00
32895;DHT22;19251;49.484;8.260;2022-08-11T18:27:34;33.00;1.00
32895;DHT22;19251;49.484;8.260;2022-08-11T18:32:59;32.70;1.00
32895;DHT22;19251;49.484;8.260;2022-08-11T18:38:41;32.30;1.00
32895;DHT22;19251;49.484;8.260;2022-08-11T18:44:05;31.90;1.00
32895;DHT22;19251;49.484;8.260;2022-08-11T18:49:30;31.60;1.00
32895;DHT22;19251;49.484;8.260;2022-08-11T18:55:12;31.20;1.00
32895;DHT22;19251;49.484;8.260;2022-08-11T19:00:35;30.90;1.00
32895;DHT22;19251;49.484;8.260;2022-08-11T19:06:00;30.50;1.00
32895;DHT22;19251;49.484;8.260;2022-08-11T19:11:41;30.20;1.00
32895;DHT22;19251;49.484;8.260;2022-08-11T19:17:03;29.90;1.00
32895;DHT22;19251;49.484;8.260;2022-08-11T19:22:47;29.70;1.00
32895;DHT22;19251;49.484;8.260;2022-08-11T19:28:08;29.30;1.00
32895;DHT22;19251;49.484;8.260;2022-08-11T19:33:30;29.10;1.00
32895;DHT22;19251;49.484;8.260;2022-08-11T19:39:11;28.90;1.00
32895;DHT22;19251;49.484;8.260;2022-08-11T19:44:33;28.60;1.00
32895;DHT22;19251;49.484;8.260;2022-08-11T19:49:55;28.40;1.00
32895;DHT22;19251;49.484;8.260;2022-08-11T19:55:24;28.20;1.00
32895;DHT22;19251;49.484;8.260;2022-08-11T20:00:47;28.00;1.00
32895;DHT22;19251;49.484;8.260;2022-08-11T20:06:13;27.80;1.00
32895;DHT22;19251;49.484;8.260;2022-08-11T20:11:38;27.50;1.00
32895;DHT22;19251;49.484;8.260;2022-08-11T20:17:01;27.30;1.00
32895;DHT22;19251;49.484;8.260;2022-08-11T20:22:25;27.00;1.00
32895;DHT22;19251;49.484;8.260;2022-08-11T20:27:48;26.90;1.00
32895;DHT22;19251;49.484;8.260;2022-08-11T20:33:10;26.60;1.00
32895;DHT22;19251;49.484;8.260;2022-08-11T20:38:32;26.30;1.00
32895;DHT22;19251;49.484;8.260;2022-08-11T20:43:55;26.00;1.00
32895;DHT22;19251;49.484;8.260;2022-08-11T20:49:16;25.80;1.50
32895;DHT22;19251;49.484;8.260;2022-08-11T20:54:53;25.40;1.70
32895;DHT22;19251;49.484;8.260;2022-08-11T21:00:35;25.30;2.20
32895;DHT22;19251;49.484;8.260;2022-08-11T21:06:00;24.90;2.90
32895;DHT22;19251;49.484;8.260;2022-08-11T21:11:33;24.80;3.50
32895;DHT22;19251;49.484;8.260;2022-08-11T21:16:59;24.50;3.80
32895;DHT22;19251;49.484;8.260;2022-08-11T21:22:44;24.40;4.30
32895;DHT22;19251;49.484;8.260;2022-08-11T21:28:08;24.30;4.60
32895;DHT22;19251;49.484;8.260;2022-08-11T21:33:30;24.10;5.20
32895;DHT22;19251;49.484;8.260;2022-08-11T21:38:52;23.80;5.40
32895;DHT22;19251;49.484;8.260;2022-08-11T21:44:13;23.60;5.80
32895;DHT22;19251;49.484;8.260;2022-08-11T21:49:35;23.50;6.20
32895;DHT22;19251;49.484;8.260;2022-08-11T21:55:00;22.90;6.20
32895;DHT22;19251;49.484;8.260;2022-08-11T22:00:21;23.10;6.90
32895;DHT22;19251;49.484;8.260;2022-08-11T22:05:42;23.00;7.40
32895;DHT22;19251;49.484;8.260;2022-08-11T22:11:04;22.80;7.70
32895;DHT22;19251;49.484;8.260;2022-08-11T22:16:34;22.60;8.00
32895;DHT22;19251;49.484;8.260;2022-08-11T22:21:57;22.20;8.00
32895;DHT22;19251;49.484;8.260;2022-08-11T22:27:26;22.90;8.80
32895;DHT22;19251;49.484;8.260;2022-08-11T22:32:47;22.20;8.30
32895;DHT22;19251;49.484;8.260;2022-08-11T22:38:08;22.30;9.30
32895;DHT22;19251;49.484;8.260;2022-08-11T22:43:29;22.30;8.50
32895;DHT22;19251;49.484;8.260;2022-08-11T22:48:50;22.20;8.70
32895;DHT22;19251;49.484;8.260;2022-08-11T22:54:12;22.10;8.70
32895;DHT22;19251;49.484;8.260;2022-08-11T22:59:35;22.00;8.80
32895;DHT22;19251;49.484;8.260;2022-08-11T23:04:56;22.10;9.10
32895;DHT22;19251;49.484;8.260;2022-08-11T23:10:19;22.00;9.20
32895;DHT22;19251;49.484;8.260;2022-08-11T23:15:42;21.70;9.00
32895;DHT22;19251;49.484;8.260;2022-08-11T23:21:03;21.40;8.90
32895;DHT22;19251;49.484;8.260;2022-08-11T23:26:25;21.50;9.10
32895;DHT22;19251;49.484;8.260;2022-08-11T23:31:50;21.50;9.30
32895;DHT22;19251;49.484;8.260;2022-08-11T23:37:10;21.50;9.50
32895;DHT22;19251;49.484;8.260;2022-08-11T23:42:36;21.70;10.10
32895;DHT22;19251;49.484;8.260;2022-08-11T23:47:58;21.30;9.80
32895;DHT22;19251;49.484;8.260;2022-08-11T23:53:20;21.10;9.60
32895;DHT22;19251;49.484;8.260;2022-08-11T23:58:41;21.10;9.60
